sensor_id;sensor_type;location;lat;lon;timestamp;temperature;humidity
67759;SHT31;54562;47.620;18.786;2022-09-30T00:01:03;12.63;88.70
67759;SHT31;54562;47.620;18.786;2022-09-30T00:04:12;12.63;88.71
67759;SHT31;54562;47.620;18.786;2022-09-30T00:07:23;12.64;88.78
67759;SHT31;54562;47.620;18.786;2022-09-30T00:10:31;12.62;88.82
67759;SHT31;54562;47.620;18.786;2022-09-30T00:13:39;12.63;88.88
67759;SHT31;54562;47.620;18.786;2022-09-30T00:16:49;12.62;88.93
67759;SHT31;54562;47.620;18.786;2022-09-30T00:19:55;12.62;89.06
67759;SHT31;54562;47.620;18.786;2022-09-30T00:23:03;12.63;89.11
67759;SHT31;54562;47.620;18.786;2022-09-30T00:26:12;12.66;89.10
67759;SHT31;54562;47.620;18.786;2022-09-30T00:29:22;12.67;89.11
67759;SHT31;54562;47.620;18.786;2022-09-30T00:32:30;12.65;89.18
67759;SHT31;54562;47.620;18.786;2022-09-30T00:35:38;12.61;89.22
67759;SHT31;54562;47.620;18.786;2022-09-30T00:38:46;12.59;89.28
67759;SHT31;54562;47.620;18.786;2022-09-30T00:41:56;12.56;89.31
67759;SHT31;54562;47.620;18.786;2022-09-30T00:45:09;12.53;89.40
67759;SHT31;54562;47.620;18.786;2022-09-30T00:48:21;12.53;89.49
67759;SHT31;54562;47.620;18.786;2022-09-30T00:51:35;12.55;89.53
67759;SHT31;54562;47.620;18.786;2022-09-30T00:54:48;12.57;89.61
67759;SHT31;54562;47.620;18.786;2022-09-30T00:57:57;12.62;89.68
67759;SHT31;54562;47.620;18.786;2022-09-30T01:01:07;12.66;89.70
67759;SHT31;54562;47.620;18.786;2022-09-30T01:04:18;12.69;89.67
67759;SHT31;54562;47.620;18.786;2022-09-30T01:07:26;12.70;89.70
67759;SHT31;54562;47.620;18.786;2022-09-30T01:10:35;12.68;89.71
67759;SHT31;54562;47.620;18.786;2022-09-30T01:13:45;12.68;89.76
67759;SHT31;54562;47.620;18.786;2022-09-30T01:16:58;12.67;89.80
67759;SHT31;54562;47.620;18.786;2022-09-30T01:20:20;12.67;89.82
67759;SHT31;54562;47.620;18.786;2022-09-30T01:24:19;12.67;89.92
67759;SHT31;54562;47.620;18.786;2022-09-30T01:28:02;12.67;90.05
67759;SHT31;54562;47.620;18.786;2022-09-30T01:31:51;12.66;90.19
67759;SHT31;54562;47.620;18.786;2022-09-30T01:35:09;12.66;90.27
67759;SHT31;54562;47.620;18.786;2022-09-30T01:38:37;12.67;90.32
67759;SHT31;54562;47.620;18.786;2022-09-30T01:42:02;12.69;90.43
67759;SHT31;54562;47.620;18.786;2022-09-30T01:45:24;12.71;90.50
67759;SHT31;54562;47.620;18.786;2022-09-30T01:48:42;12.72;90.52
67759;SHT31;54562;47.620;18.786;2022-09-30T01:52:01;12.73;90.56
67759;SHT31;54562;47.620;18.786;2022-09-30T01:55:17;12.74;90.57
67759;SHT31;54562;47.620;18.786;2022-09-30T01:58:36;12.76;90.50
67759;SHT31;54562;47.620;18.786;2022-09-30T02:01:56;12.76;90.48
67759;SHT31;54562;47.620;18.786;2022-09-30T02:05:11;12.77;90.47
67759;SHT31;54562;47.620;18.786;2022-09-30T02:08:25;12.76;90.47
67759;SHT31;54562;47.620;18.786;2022-09-30T02:11:41;12.75;90.48
67759;SHT31;54562;47.620;18.786;2022-09-30T02:14:50;12.76;90.47
67759;SHT31;54562;47.620;18.786;2022-09-30T02:18:08;12.76;90.45
67759;SHT31;54562;47.620;18.786;2022-09-30T02:21:24;12.75;90.46
67759;SHT31;54562;47.620;18.786;2022-09-30T02:24:40;12.74;90.49
67759;SHT31;54562;47.620;18.786;2022-09-30T02:27:50;12.74;90.47
67759;SHT31;54562;47.620;18.786;2022-09-30T02:31:00;12.72;90.50
67759;SHT31;54562;47.620;18.786;2022-09-30T02:34:13;12.71;90.52
67759;SHT31;54562;47.620;18.786;2022-09-30T02:37:27;12.72;90.52
67759;SHT31;54562;47.620;18.786;2022-09-30T02:40:42;12.73;90.50
67759;SHT31;54562;47.620;18.786;2022-09-30T02:43:55;12.73;90.53
67759;SHT31;54562;47.620;18.786;2022-09-30T02:47:09;12.75;90.58
67759;SHT31;54562;47.620;18.786;2022-09-30T02:50:27;12.75;90.59
67759;SHT31;54562;47.620;18.786;2022-09-30T02:53:44;12.74;90.62
67759;SHT31;54562;47.620;18.786;2022-09-30T02:57:07;12.74;90.68
67759;SHT31;54562;47.620;18.786;2022-09-30T03:00:27;12.74;90.71
67759;SHT31;54562;47.620;18.786;2022-09-30T03:03:36;12.75;90.72
67759;SHT31;54562;47.620;18.786;2022-09-30T03:06:50;12.78;90.70
67759;SHT31;54562;47.620;18.786;2022-09-30T03:09:58;12.79;90.70
67759;SHT31;54562;47.620;18.786;2022-09-30T03:13:28;12.80;90.71
67759;SHT31;54562;47.620;18.786;2022-09-30T03:17:15;12.82;90.73
67759;SHT31;54562;47.620;18.786;2022-09-30T03:20:45;12.82;90.72
67759;SHT31;54562;47.620;18.786;2022-09-30T03:28:06;12.83;90.80
67759;SHT31;54562;47.620;18.786;2022-09-30T03:31:29;12.82;90.85
67759;SHT31;54562;47.620;18.786;2022-09-30T03:34:50;12.83;90.95
67759;SHT31;54562;47.620;18.786;2022-09-30T03:38:17;12.83;91.05
67759;SHT31;54562;47.620;18.786;2022-09-30T03:41:37;12.83;91.10
67759;SHT31;54562;47.620;18.786;2022-09-30T03:44:53;12.84;91.15
67759;SHT31;54562;47.620;18.786;2022-09-30T03:48:08;12.84;91.20
67759;SHT31;54562;47.620;18.786;2022-09-30T03:51:21;12.84;91.22
67759;SHT31;54562;47.620;18.786;2022-09-30T03:54:31;12.85;91.25
67759;SHT31;54562;47.620;18.786;2022-09-30T03:57:47;12.84;91.30
67759;SHT31;54562;47.620;18.786;2022-09-30T04:00:56;12.84;91.32
67759;SHT31;54562;47.620;18.786;2022-09-30T04:04:04;12.84;91.39
67759;SHT31;54562;47.620;18.786;2022-09-30T04:07:12;12.85;91.39
67759;SHT31;54562;47.620;18.786;2022-09-30T04:10:21;12.85;91.40
67759;SHT31;54562;47.620;18.786;2022-09-30T04:13:29;12.86;91.40
67759;SHT31;54562;47.620;18.786;2022-09-30T04:16:37;12.85;91.41
67759;SHT31;54562;47.620;18.786;2022-09-30T04:19:45;12.86;91.47
67759;SHT31;54562;47.620;18.786;2022-09-30T04:22:54;12.86;91.47
67759;SHT31;54562;47.620;18.786;2022-09-30T04:26:05;12.88;91.54
67759;SHT31;54562;47.620;18.786;2022-09-30T04:29:16;12.92;91.61
67759;SHT31;54562;47.620;18.786;2022-09-30T04:32:24;12.94;91.60
67759;SHT31;54562;47.620;18.786;2022-09-30T04:35:32;12.96;91.60
67759;SHT31;54562;47.620;18.786;2022-09-30T04:38:43;12.98;91.59
67759;SHT31;54562;47.620;18.786;2022-09-30T04:41:51;12.98;91.60
67759;SHT31;54562;47.620;18.786;2022-09-30T04:44:59;12.99;91.60
67759;SHT31;54562;47.620;18.786;2022-09-30T04:48:07;12.99;91.63
67759;SHT31;54562;47.620;18.786;2022-09-30T04:51:16;13.01;91.70
67759;SHT31;54562;47.620;18.786;2022-09-30T04:54:25;13.02;91.75
67759;SHT31;54562;47.620;18.786;2022-09-30T04:57:33;13.05;91.82
67759;SHT31;54562;47.620;18.786;2022-09-30T05:00:41;13.06;91.87
67759;SHT31;54562;47.620;18.786;2022-09-30T05:03:49;13.09;91.88
67759;SHT31;54562;47.620;18.786;2022-09-30T05:06:58;13.13;91.97
67759;SHT31;54562;47.620;18.786;2022-09-30T05:10:11;13.19;92.05
67759;SHT31;54562;47.620;18.786;2022-09-30T05:13:19;13.24;92.10
67759;SHT31;54562;47.620;18.786;2022-09-30T05:16:28;13.27;92.11
67759;SHT31;54562;47.620;18.786;2022-09-30T05:19:36;13.30;92.17
67759;SHT31;54562;47.620;18.786;2022-09-30T05:22:45;13.34;92.18
67759;SHT31;54562;47.620;18.786;2022-09-30T05:25:56;13.37;92.14
67759;SHT31;54562;47.620;18.786;2022-09-30T05:29:06;13.38;92.18
67759;SHT31;54562;47.620;18.786;2022-09-30T05:32:14;13.41;92.19
67759;SHT31;54562;47.620;18.786;2022-09-30T05:35:23;13.42;92.20
67759;SHT31;54562;47.620;18.786;2022-09-30T05:38:31;13.45;92.20
67759;SHT31;54562;47.620;18.786;2022-09-30T05:41:39;13.47;92.20
67759;SHT31;54562;47.620;18.786;2022-09-30T05:44:47;13.49;92.20
67759;SHT31;54562;47.620;18.786;2022-09-30T05:47:55;13.49;92.18
67759;SHT31;54562;47.620;18.786;2022-09-30T05:51:04;13.50;92.18
67759;SHT31;54562;47.620;18.786;2022-09-30T05:54:12;13.51;92.15
67759;SHT31;54562;47.620;18.786;2022-09-30T05:57:20;13.50;92.14
67759;SHT31;54562;47.620;18.786;2022-09-30T06:00:28;13.51;92.16
67759;SHT31;54562;47.620;18.786;2022-09-30T06:03:36;13.51;92.13
67759;SHT31;54562;47.620;18.786;2022-09-30T06:06:45;13.52;92.14
67759;SHT31;54562;47.620;18.786;2022-09-30T06:09:52;13.52;92.13
67759;SHT31;54562;47.620;18.786;2022-09-30T06:13:01;13.53;92.13
67759;SHT31;54562;47.620;18.786;2022-09-30T06:16:09;13.55;92.10
67759;SHT31;54562;47.620;18.786;2022-09-30T06:19:20;13.56;92.10
67759;SHT31;54562;47.620;18.786;2022-09-30T06:22:28;13.56;92.10
67759;SHT31;54562;47.620;18.786;2022-09-30T06:25:39;13.57;92.10
67759;SHT31;54562;47.620;18.786;2022-09-30T06:28:47;13.58;92.10
67759;SHT31;54562;47.620;18.786;2022-09-30T06:31:55;13.58;92.10
67759;SHT31;54562;47.620;18.786;2022-09-30T06:35:03;13.59;92.10
67759;SHT31;54562;47.620;18.786;2022-09-30T06:38:14;13.60;92.08
67759;SHT31;54562;47.620;18.786;2022-09-30T06:41:23;13.62;92.09
67759;SHT31;54562;47.620;18.786;2022-09-30T06:44:32;13.63;92.10
67759;SHT31;54562;47.620;18.786;2022-09-30T06:47:56;13.65;92.09
67759;SHT31;54562;47.620;18.786;2022-09-30T06:51:06;13.65;92.08
67759;SHT31;54562;47.620;18.786;2022-09-30T06:54:14;13.66;92.05
67759;SHT31;54562;47.620;18.786;2022-09-30T06:57:24;13.67;92.07
67759;SHT31;54562;47.620;18.786;2022-09-30T07:00:33;13.68;92.04
67759;SHT31;54562;47.620;18.786;2022-09-30T07:03:43;13.70;92.06
67759;SHT31;54562;47.620;18.786;2022-09-30T07:06:56;13.72;92.03
67759;SHT31;54562;47.620;18.786;2022-09-30T07:10:05;13.75;92.01
67759;SHT31;54562;47.620;18.786;2022-09-30T07:13:14;13.80;92.00
67759;SHT31;54562;47.620;18.786;2022-09-30T07:16:23;13.83;92.00
67759;SHT31;54562;47.620;18.786;2022-09-30T07:19:31;13.88;91.98
67759;SHT31;54562;47.620;18.786;2022-09-30T07:22:41;13.92;91.97
67759;SHT31;54562;47.620;18.786;2022-09-30T07:25:50;13.97;91.90
67759;SHT31;54562;47.620;18.786;2022-09-30T07:29:02;14.01;91.90
67759;SHT31;54562;47.620;18.786;2022-09-30T07:32:11;14.06;91.90
67759;SHT31;54562;47.620;18.786;2022-09-30T07:35:21;14.11;91.90
67759;SHT31;54562;47.620;18.786;2022-09-30T07:38:28;14.14;91.89
67759;SHT31;54562;47.620;18.786;2022-09-30T07:41:39;14.18;91.85
67759;SHT31;54562;47.620;18.786;2022-09-30T07:44:47;14.23;91.86
67759;SHT31;54562;47.620;18.786;2022-09-30T07:47:56;14.27;91.89
67759;SHT31;54562;47.620;18.786;2022-09-30T07:51:04;14.31;91.89
67759;SHT31;54562;47.620;18.786;2022-09-30T07:54:14;14.32;91.81
67759;SHT31;54562;47.620;18.786;2022-09-30T07:57:24;14.33;91.78
67759;SHT31;54562;47.620;18.786;2022-09-30T08:00:33;14.35;91.72
67759;SHT31;54562;47.620;18.786;2022-09-30T08:03:44;14.34;91.70
67759;SHT31;54562;47.620;18.786;2022-09-30T08:06:56;14.36;91.67
67759;SHT31;54562;47.620;18.786;2022-09-30T08:10:08;14.38;91.67
67759;SHT31;54562;47.620;18.786;2022-09-30T08:13:17;14.41;91.65
67759;SHT31;54562;47.620;18.786;2022-09-30T08:16:25;14.45;91.63
67759;SHT31;54562;47.620;18.786;2022-09-30T08:19:34;14.48;91.64
67759;SHT31;54562;47.620;18.786;2022-09-30T08:22:46;14.50;91.62
67759;SHT31;54562;47.620;18.786;2022-09-30T08:26:02;14.51;91.60
67759;SHT31;54562;47.620;18.786;2022-09-30T08:29:12;14.50;91.57
67759;SHT31;54562;47.620;18.786;2022-09-30T08:32:42;14.52;91.51
67759;SHT31;54562;47.620;18.786;2022-09-30T08:35:50;14.53;91.50
67759;SHT31;54562;47.620;18.786;2022-09-30T08:38:59;14.55;91.50
67759;SHT31;54562;47.620;18.786;2022-09-30T08:42:12;14.56;91.53
67759;SHT31;54562;47.620;18.786;2022-09-30T08:45:46;14.59;91.53
67759;SHT31;54562;47.620;18.786;2022-09-30T08:49:13;14.61;91.53
67759;SHT31;54562;47.620;18.786;2022-09-30T08:52:35;14.61;91.47
67759;SHT31;54562;47.620;18.786;2022-09-30T08:55:53;14.61;91.47
67759;SHT31;54562;47.620;18.786;2022-09-30T08:59:05;14.61;91.54
67759;SHT31;54562;47.620;18.786;2022-09-30T09:02:25;14.62;91.60
67759;SHT31;54562;47.620;18.786;2022-09-30T09:05:40;14.63;91.60
67759;SHT31;54562;47.620;18.786;2022-09-30T09:12:44;14.67;91.60
67759;SHT31;54562;47.620;18.786;2022-09-30T09:16:05;14.68;91.57
67759;SHT31;54562;47.620;18.786;2022-09-30T09:19:24;14.66;91.50
67759;SHT31;54562;47.620;18.786;2022-09-30T09:22:43;14.65;91.47
67759;SHT31;54562;47.620;18.786;2022-09-30T09:25:54;14.65;91.47
67759;SHT31;54562;47.620;18.786;2022-09-30T09:29:05;14.67;91.47
67759;SHT31;54562;47.620;18.786;2022-09-30T09:32:29;14.69;91.50
67759;SHT31;54562;47.620;18.786;2022-09-30T09:35:40;14.72;91.53
67759;SHT31;54562;47.620;18.786;2022-09-30T09:39:01;14.75;91.50
67759;SHT31;54562;47.620;18.786;2022-09-30T09:42:30;14.74;91.40
67759;SHT31;54562;47.620;18.786;2022-09-30T09:45:54;14.75;91.32
67759;SHT31;54562;47.620;18.786;2022-09-30T09:49:29;14.77;91.30
67759;SHT31;54562;47.620;18.786;2022-09-30T09:56:45;14.97;91.40
67759;SHT31;54562;47.620;18.786;2022-09-30T09:59:55;15.10;91.47
67759;SHT31;54562;47.620;18.786;2022-09-30T10:03:30;15.22;91.32
67759;SHT31;54562;47.620;18.786;2022-09-30T10:06:43;15.33;91.21
67759;SHT31;54562;47.620;18.786;2022-09-30T10:10:10;15.41;91.06
67759;SHT31;54562;47.620;18.786;2022-09-30T10:13:26;15.52;91.03
67759;SHT31;54562;47.620;18.786;2022-09-30T10:16:46;15.67;91.08
67759;SHT31;54562;47.620;18.786;2022-09-30T10:20:02;15.76;90.97
67759;SHT31;54562;47.620;18.786;2022-09-30T10:23:24;15.82;90.66
67759;SHT31;54562;47.620;18.786;2022-09-30T10:26:41;15.86;90.31
67759;SHT31;54562;47.620;18.786;2022-09-30T10:29:51;15.93;90.35
67759;SHT31;54562;47.620;18.786;2022-09-30T10:33:00;16.00;90.39
67759;SHT31;54562;47.620;18.786;2022-09-30T10:36:19;16.10;90.37
67759;SHT31;54562;47.620;18.786;2022-09-30T10:39:34;16.12;90.15
67759;SHT31;54562;47.620;18.786;2022-09-30T10:42:45;16.13;89.95
67759;SHT31;54562;47.620;18.786;2022-09-30T10:45:54;16.08;89.75
67759;SHT31;54562;47.620;18.786;2022-09-30T10:49:26;16.05;89.57
67759;SHT31;54562;47.620;18.786;2022-09-30T10:52:39;16.08;89.55
67759;SHT31;54562;47.620;18.786;2022-09-30T10:55:58;16.15;89.61
67759;SHT31;54562;47.620;18.786;2022-09-30T10:59:15;16.26;89.51
67759;SHT31;54562;47.620;18.786;2022-09-30T11:02:36;16.34;89.28
67759;SHT31;54562;47.620;18.786;2022-09-30T11:05:56;16.43;89.27
67759;SHT31;54562;47.620;18.786;2022-09-30T11:09:08;16.47;89.04
67759;SHT31;54562;47.620;18.786;2022-09-30T11:12:24;16.45;88.69
67759;SHT31;54562;47.620;18.786;2022-09-30T11:15:47;16.46;88.52
67759;SHT31;54562;47.620;18.786;2022-09-30T11:19:10;16.46;88.31
67759;SHT31;54562;47.620;18.786;2022-09-30T11:22:32;16.48;88.23
67759;SHT31;54562;47.620;18.786;2022-09-30T11:25:51;16.61;88.33
67759;SHT31;54562;47.620;18.786;2022-09-30T11:29:15;16.86;88.26
67759;SHT31;54562;47.620;18.786;2022-09-30T11:32:52;17.31;87.93
67759;SHT31;54562;47.620;18.786;2022-09-30T11:36:29;17.85;87.69
67759;SHT31;54562;47.620;18.786;2022-09-30T11:39:53;18.29;87.22
67759;SHT31;54562;47.620;18.786;2022-09-30T11:43:24;18.73;86.48
67759;SHT31;54562;47.620;18.786;2022-09-30T11:46:58;18.94;85.72
67759;SHT31;54562;47.620;18.786;2022-09-30T11:50:26;18.92;85.03
67759;SHT31;54562;47.620;18.786;2022-09-30T11:53:56;18.69;84.13
67759;SHT31;54562;47.620;18.786;2022-09-30T11:57:26;18.45;83.77
67759;SHT31;54562;47.620;18.786;2022-09-30T12:00:41;18.18;83.55
67759;SHT31;54562;47.620;18.786;2022-09-30T12:04:01;17.93;83.66
67759;SHT31;54562;47.620;18.786;2022-09-30T12:07:19;17.79;83.82
67759;SHT31;54562;47.620;18.786;2022-09-30T12:10:37;17.82;84.07
67759;SHT31;54562;47.620;18.786;2022-09-30T12:13:56;17.92;83.92
67759;SHT31;54562;47.620;18.786;2022-09-30T12:17:15;17.93;83.57
67759;SHT31;54562;47.620;18.786;2022-09-30T12:20:35;18.19;83.65
67759;SHT31;54562;47.620;18.786;2022-09-30T12:23:49;18.60;83.31
67759;SHT31;54562;47.620;18.786;2022-09-30T12:27:12;18.79;82.74
67759;SHT31;54562;47.620;18.786;2022-09-30T12:30:27;18.54;81.68
67759;SHT31;54562;47.620;18.786;2022-09-30T12:33:45;18.23;81.68
67759;SHT31;54562;47.620;18.786;2022-09-30T12:37:13;17.94;82.01
67759;SHT31;54562;47.620;18.786;2022-09-30T12:40:49;17.75;81.82
67759;SHT31;54562;47.620;18.786;2022-09-30T12:44:26;17.60;81.99
67759;SHT31;54562;47.620;18.786;2022-09-30T12:48:13;17.46;82.07
67759;SHT31;54562;47.620;18.786;2022-09-30T12:51:28;17.29;82.14
67759;SHT31;54562;47.620;18.786;2022-09-30T12:54:41;17.13;82.12
67759;SHT31;54562;47.620;18.786;2022-09-30T12:57:54;16.94;81.89
67759;SHT31;54562;47.620;18.786;2022-09-30T13:01:05;16.74;81.99
67759;SHT31;54562;47.620;18.786;2022-09-30T13:04:29;16.55;82.25
67759;SHT31;54562;47.620;18.786;2022-09-30T13:07:41;16.39;82.28
67759;SHT31;54562;47.620;18.786;2022-09-30T13:11:41;16.19;82.67
67759;SHT31;54562;47.620;18.786;2022-09-30T13:14:47;16.08;82.61
67759;SHT31;54562;47.620;18.786;2022-09-30T13:26:03;15.90;82.94
67759;SHT31;54562;47.620;18.786;2022-09-30T13:29:46;15.90;83.01
67759;SHT31;54562;47.620;18.786;2022-09-30T13:33:24;15.92;82.93
67759;SHT31;54562;47.620;18.786;2022-09-30T13:36:57;15.97;83.03
67759;SHT31;54562;47.620;18.786;2022-09-30T13:40:17;16.07;83.33
67759;SHT31;54562;47.620;18.786;2022-09-30T13:43:52;16.10;83.04
67759;SHT31;54562;47.620;18.786;2022-09-30T13:47:12;16.08;82.99
67759;SHT31;54562;47.620;18.786;2022-09-30T13:50:30;16.07;82.89
67759;SHT31;54562;47.620;18.786;2022-09-30T13:53:48;16.09;82.92
67759;SHT31;54562;47.620;18.786;2022-09-30T13:57:02;16.10;82.75
67759;SHT31;54562;47.620;18.786;2022-09-30T14:00:16;16.12;82.68
67759;SHT31;54562;47.620;18.786;2022-09-30T14:03:43;16.14;82.80
67759;SHT31;54562;47.620;18.786;2022-09-30T14:07:12;16.17;82.84
67759;SHT31;54562;47.620;18.786;2022-09-30T14:10:41;16.13;82.72
67759;SHT31;54562;47.620;18.786;2022-09-30T14:14:12;16.08;82.78
67759;SHT31;54562;47.620;18.786;2022-09-30T14:18:03;16.03;82.72
67759;SHT31;54562;47.620;18.786;2022-09-30T14:21:47;15.95;82.59
67759;SHT31;54562;47.620;18.786;2022-09-30T14:24:59;15.92;82.81
67759;SHT31;54562;47.620;18.786;2022-09-30T14:28:16;15.91;82.97
67759;SHT31;54562;47.620;18.786;2022-09-30T14:31:35;15.88;82.93
67759;SHT31;54562;47.620;18.786;2022-09-30T14:34:50;15.84;83.20
67759;SHT31;54562;47.620;18.786;2022-09-30T14:38:01;15.82;83.14
67759;SHT31;54562;47.620;18.786;2022-09-30T14:41:15;15.80;83.10
67759;SHT31;54562;47.620;18.786;2022-09-30T14:44:25;15.79;83.11
67759;SHT31;54562;47.620;18.786;2022-09-30T14:47:39;15.78;82.93
67759;SHT31;54562;47.620;18.786;2022-09-30T14:50:56;15.79;82.88
67759;SHT31;54562;47.620;18.786;2022-09-30T14:54:15;15.75;82.77
67759;SHT31;54562;47.620;18.786;2022-09-30T14:57:26;15.73;82.78
67759;SHT31;54562;47.620;18.786;2022-09-30T15:00:36;15.72;82.84
67759;SHT31;54562;47.620;18.786;2022-09-30T15:03:43;15.70;82.89
67759;SHT31;54562;47.620;18.786;2022-09-30T15:06:57;15.68;82.94
67759;SHT31;54562;47.620;18.786;2022-09-30T15:10:15;15.64;82.90
67759;SHT31;54562;47.620;18.786;2022-09-30T15:13:28;15.61;82.99
67759;SHT31;54562;47.620;18.786;2022-09-30T15:16:44;15.57;82.93
67759;SHT31;54562;47.620;18.786;2022-09-30T15:19:54;15.52;82.97
67759;SHT31;54562;47.620;18.786;2022-09-30T15:23:05;15.49;83.00
67759;SHT31;54562;47.620;18.786;2022-09-30T15:26:26;15.47;83.04
67759;SHT31;54562;47.620;18.786;2022-09-30T15:29:36;15.45;83.13
67759;SHT31;54562;47.620;18.786;2022-09-30T15:33:00;15.41;83.24
67759;SHT31;54562;47.620;18.786;2022-09-30T15:36:12;15.41;83.37
67759;SHT31;54562;47.620;18.786;2022-09-30T15:39:23;15.38;83.38
67759;SHT31;54562;47.620;18.786;2022-09-30T15:42:55;15.36;83.37
67759;SHT31;54562;47.620;18.786;2022-09-30T15:46:23;15.34;83.36
67759;SHT31;54562;47.620;18.786;2022-09-30T15:49:44;15.32;83.44
67759;SHT31;54562;47.620;18.786;2022-09-30T15:52:55;15.30;83.58
67759;SHT31;54562;47.620;18.786;2022-09-30T15:56:23;15.26;83.62
67759;SHT31;54562;47.620;18.786;2022-09-30T15:59:58;15.20;83.63
67759;SHT31;54562;47.620;18.786;2022-09-30T16:06:41;15.09;83.54
67759;SHT31;54562;47.620;18.786;2022-09-30T16:09:54;15.07;83.71
67759;SHT31;54562;47.620;18.786;2022-09-30T16:13:03;15.04;83.61
67759;SHT31;54562;47.620;18.786;2022-09-30T16:16:19;15.01;83.67
67759;SHT31;54562;47.620;18.786;2022-09-30T16:19:30;14.98;83.77
67759;SHT31;54562;47.620;18.786;2022-09-30T16:29:38;14.92;83.84
67759;SHT31;54562;47.620;18.786;2022-09-30T16:32:46;14.89;83.91
67759;SHT31;54562;47.620;18.786;2022-09-30T16:35:57;14.86;83.88
67759;SHT31;54562;47.620;18.786;2022-09-30T16:39:07;14.83;83.80
67759;SHT31;54562;47.620;18.786;2022-09-30T16:42:19;14.81;83.78
67759;SHT31;54562;47.620;18.786;2022-09-30T16:45:28;14.76;83.80
67759;SHT31;54562;47.620;18.786;2022-09-30T16:48:41;14.74;83.78
67759;SHT31;54562;47.620;18.786;2022-09-30T16:51:49;14.69;83.75
67759;SHT31;54562;47.620;18.786;2022-09-30T16:54:57;14.65;83.86
67759;SHT31;54562;47.620;18.786;2022-09-30T16:58:08;14.60;83.89
67759;SHT31;54562;47.620;18.786;2022-09-30T17:01:18;14.51;83.89
67759;SHT31;54562;47.620;18.786;2022-09-30T17:04:28;14.43;83.94
67759;SHT31;54562;47.620;18.786;2022-09-30T17:07:41;14.35;84.09
67759;SHT31;54562;47.620;18.786;2022-09-30T17:10:50;14.30;84.12
67759;SHT31;54562;47.620;18.786;2022-09-30T17:14:00;14.29;84.20
67759;SHT31;54562;47.620;18.786;2022-09-30T17:17:09;14.26;84.22
67759;SHT31;54562;47.620;18.786;2022-09-30T17:20:17;14.20;84.21
67759;SHT31;54562;47.620;18.786;2022-09-30T17:23:25;14.14;84.32
67759;SHT31;54562;47.620;18.786;2022-09-30T17:26:34;14.07;84.28
67759;SHT31;54562;47.620;18.786;2022-09-30T17:29:42;14.03;84.47
67759;SHT31;54562;47.620;18.786;2022-09-30T17:32:51;13.99;84.63
67759;SHT31;54562;47.620;18.786;2022-09-30T17:36:00;13.97;84.78
67759;SHT31;54562;47.620;18.786;2022-09-30T17:39:12;13.93;84.87
67759;SHT31;54562;47.620;18.786;2022-09-30T17:42:21;13.90;84.86
67759;SHT31;54562;47.620;18.786;2022-09-30T17:45:47;13.87;84.77
67759;SHT31;54562;47.620;18.786;2022-09-30T17:48:57;13.82;84.72
67759;SHT31;54562;47.620;18.786;2022-09-30T17:52:06;13.73;84.70
67759;SHT31;54562;47.620;18.786;2022-09-30T17:55:17;13.65;84.81
67759;SHT31;54562;47.620;18.786;2022-09-30T17:58:26;13.62;84.91
67759;SHT31;54562;47.620;18.786;2022-09-30T18:01:34;13.57;84.85
67759;SHT31;54562;47.620;18.786;2022-09-30T18:04:43;13.51;84.93
67759;SHT31;54562;47.620;18.786;2022-09-30T18:07:54;13.49;85.20
67759;SHT31;54562;47.620;18.786;2022-09-30T18:11:02;13.48;85.19
67759;SHT31;54562;47.620;18.786;2022-09-30T18:14:11;13.48;85.23
67759;SHT31;54562;47.620;18.786;2022-09-30T18:17:20;13.48;85.28
67759;SHT31;54562;47.620;18.786;2022-09-30T18:20:28;13.46;85.20
67759;SHT31;54562;47.620;18.786;2022-09-30T18:23:36;13.44;85.20
67759;SHT31;54562;47.620;18.786;2022-09-30T18:26:44;13.42;85.18
67759;SHT31;54562;47.620;18.786;2022-09-30T18:29:52;13.38;85.31
67759;SHT31;54562;47.620;18.786;2022-09-30T18:33:00;13.37;85.39
67759;SHT31;54562;47.620;18.786;2022-09-30T18:36:09;13.37;85.42
67759;SHT31;54562;47.620;18.786;2022-09-30T18:39:17;13.36;85.50
67759;SHT31;54562;47.620;18.786;2022-09-30T18:42:26;13.33;85.33
67759;SHT31;54562;47.620;18.786;2022-09-30T18:45:34;13.29;85.12
67759;SHT31;54562;47.620;18.786;2022-09-30T18:48:42;13.26;85.32
67759;SHT31;54562;47.620;18.786;2022-09-30T18:51:56;13.25;85.47
67759;SHT31;54562;47.620;18.786;2022-09-30T18:55:06;13.24;85.60
67759;SHT31;54562;47.620;18.786;2022-09-30T18:58:14;13.24;85.66
67759;SHT31;54562;47.620;18.786;2022-09-30T19:01:22;13.25;85.88
67759;SHT31;54562;47.620;18.786;2022-09-30T19:04:31;13.27;86.07
67759;SHT31;54562;47.620;18.786;2022-09-30T19:07:40;13.28;86.17
67759;SHT31;54562;47.620;18.786;2022-09-30T19:10:48;13.30;86.26
67759;SHT31;54562;47.620;18.786;2022-09-30T19:13:57;13.31;86.20
67759;SHT31;54562;47.620;18.786;2022-09-30T19:17:05;13.26;86.27
67759;SHT31;54562;47.620;18.786;2022-09-30T19:20:14;13.21;86.34
67759;SHT31;54562;47.620;18.786;2022-09-30T19:23:22;13.15;86.47
67759;SHT31;54562;47.620;18.786;2022-09-30T19:26:34;13.10;86.67
67759;SHT31;54562;47.620;18.786;2022-09-30T19:29:43;13.06;86.87
67759;SHT31;54562;47.620;18.786;2022-09-30T19:32:54;13.02;86.92
67759;SHT31;54562;47.620;18.786;2022-09-30T19:36:03;12.99;86.99
67759;SHT31;54562;47.620;18.786;2022-09-30T19:39:17;12.99;87.10
67759;SHT31;54562;47.620;18.786;2022-09-30T19:42:27;13.03;87.21
67759;SHT31;54562;47.620;18.786;2022-09-30T19:45:36;13.06;87.29
67759;SHT31;54562;47.620;18.786;2022-09-30T19:48:43;13.10;87.40
67759;SHT31;54562;47.620;18.786;2022-09-30T19:51:51;13.13;87.41
67759;SHT31;54562;47.620;18.786;2022-09-30T19:54:59;13.15;87.44
67759;SHT31;54562;47.620;18.786;2022-09-30T19:58:18;13.16;87.53
67759;SHT31;54562;47.620;18.786;2022-09-30T20:01:26;13.19;87.58
67759;SHT31;54562;47.620;18.786;2022-09-30T20:04:38;13.21;87.58
67759;SHT31;54562;47.620;18.786;2022-09-30T20:07:47;13.23;87.57
67759;SHT31;54562;47.620;18.786;2022-09-30T20:11:01;13.25;87.64
67759;SHT31;54562;47.620;18.786;2022-09-30T20:14:11;13.27;87.73
67759;SHT31;54562;47.620;18.786;2022-09-30T20:17:37;13.28;87.80
67759;SHT31;54562;47.620;18.786;2022-09-30T20:20:45;13.28;87.89
67759;SHT31;54562;47.620;18.786;2022-09-30T20:23:55;13.28;87.93
67759;SHT31;54562;47.620;18.786;2022-09-30T20:27:04;13.26;88.05
67759;SHT31;54562;47.620;18.786;2022-09-30T20:30:14;13.26;88.18
67759;SHT31;54562;47.620;18.786;2022-09-30T20:33:23;13.28;88.26
67759;SHT31;54562;47.620;18.786;2022-09-30T20:36:31;13.26;88.26
67759;SHT31;54562;47.620;18.786;2022-09-30T20:39:41;13.26;88.33